LEGR

Details ICAO LEGR (GRX)
Name Granada
Region Spain
Timezone Europe/Madrid (UTC+1.0)
Plans Departing 112
Arriving 138
Stats Elevation 1,859 ft / 567 m (AMSL)
Location 37.188731° -3.777359°
Runways 1
Magnetic Variation 0.677° W
Sunrise 2017-12-13 07:21:42 UTC / 2017-12-13 08:21:42 Local
Sunset 2017-12-13 16:59:46 UTC / 2017-12-13 17:59:46 Local
Advertisement - Login to hide

Runways

ID Width Length Bearing (true) Bearing (mag) Surface Threshold Offset Overrun Length
09 147 ft / 45 m 9,511 ft / 2,899 m 89.46° 90.14° Asphalt 0 ft / 0 m 0 ft / 0 m
27 147 ft / 45 m 9,511 ft / 2,899 m 269.48° 270.16° Asphalt 0 ft / 0 m 0 ft / 0 m

Approach Navaids

Runway Type Ident Frequency Range Bearing (true) Bearing (mag) Slope Elevation
09 Localiser GRD 109.30 MHz 18 nm / 33 km 89.49° 90.16° - 1,859 ft / 567 m (AMSL)
09 Glidescope GRD 109.30 MHz 10 nm / 19 km 89.47° 90.15° 3.00° 1,859 ft / 567 m (AMSL)

Map

Weather


0- 5 10 15 20 25 30 35+ Temperature / ° C

Clouds and Precipitation
Forecast for 2017-12-13 06:00 UTC. Updated 38 minutes ago

Ground ~20,000 ft ~40,000 ft Winds

METAR

LEGR 130330Z AUTO 00000KT 9999 NCD M01/M02 Q1026

TAF

TAF LEGR 130200Z 1303/1403 VRB02KT CAVOK TX12/1315Z TN00/1307Z

Frequencies

Ground 121.70 MHz GRANADA GND
Approach 118.85 MHz GRANADA APP
Tower 118.85 MHz GRANADA TWR
Warning: Do not use this data for real-world aviation or navigation. No guarantee of current accuracy is given.